createdAt,value
2022-12-05T00:04:18.986Z,219.60
2022-12-05T00:19:20.261Z,242.90
2022-12-05T00:34:21.646Z,235.10
2022-12-05T00:49:21.920Z,244.70
2022-12-05T01:04:22.310Z,198.80
2022-12-05T01:19:22.335Z,208.20
2022-12-05T01:34:22.611Z,236.60
2022-12-05T01:49:22.764Z,201.60
2022-12-05T02:04:22.952Z,228.80
2022-12-05T02:19:23.194Z,200.00
2022-12-05T02:34:23.386Z,212.50
2022-12-05T02:49:23.567Z,201.30
2022-12-05T03:04:23.881Z,211.70
2022-12-05T03:19:23.997Z,181.10
2022-12-05T03:34:24.198Z,187.10
2022-12-05T03:49:26.971Z,155.20
2022-12-05T04:04:29.525Z,111.70
2022-12-05T04:19:30.204Z,111.80
2022-12-05T04:34:30.870Z,95.60
2022-12-05T04:49:31.550Z,76.70
2022-12-05T05:04:32.274Z,87.90
2022-12-05T05:19:32.934Z,81.90
2022-12-05T05:34:33.506Z,66.50
2022-12-05T05:49:33.697Z,78.80
2022-12-05T06:04:34.384Z,68.90
2022-12-05T06:19:35.032Z,64.30
2022-12-05T06:34:36.344Z,55.80
2022-12-05T06:49:38.245Z,41.90
2022-12-05T07:04:38.942Z,48.30
2022-12-05T07:19:39.127Z,48.70
2022-12-05T07:34:39.348Z,38.70
2022-12-05T07:49:39.563Z,43.20
2022-12-05T08:04:39.677Z,46.70
2022-12-05T08:19:39.690Z,53.80
2022-12-05T08:34:39.820Z,42.60
2022-12-05T08:49:41.148Z,52.40
2022-12-05T09:04:41.540Z,40.20
2022-12-05T09:19:42.287Z,39.60
2022-12-05T09:34:43.060Z,40.30
2022-12-05T09:49:43.505Z,41.30
2022-12-05T10:04:43.530Z,33.80
2022-12-05T10:19:44.139Z,38.30
2022-12-05T10:34:44.892Z,33.50
2022-12-05T10:49:45.017Z,41.40
2022-12-05T11:04:45.357Z,38.40
2022-12-05T11:19:45.337Z,46.80
2022-12-05T11:34:45.506Z,64.80
2022-12-05T11:49:45.710Z,62.10
2022-12-05T12:04:46.659Z,47.00
2022-12-05T12:19:47.650Z,53.40
2022-12-05T12:34:51.952Z,58.70
2022-12-05T12:49:52.669Z,59.50
2022-12-05T13:04:52.882Z,57.60
2022-12-05T13:19:53.070Z,60.80
2022-12-05T13:34:53.785Z,62.60
2022-12-05T13:49:54.425Z,61.30
2022-12-05T14:04:54.434Z,84.30
2022-12-05T14:19:54.660Z,101.70
2022-12-05T14:34:55.178Z,132.30
2022-12-05T14:49:56.450Z,81.00
2022-12-05T15:04:56.705Z,99.00
2022-12-05T15:19:57.274Z,110.30
2022-12-05T15:34:58.354Z,112.60
2022-12-05T15:49:59.515Z,90.90
2022-12-05T16:04:59.651Z,133.90
2022-12-05T16:20:00.126Z,135.00
2022-12-05T16:35:01.123Z,156.90
2022-12-05T16:50:01.899Z,249.50
2022-12-05T17:05:02.611Z,194.90
2022-12-05T17:20:02.829Z,205.90
2022-12-05T17:35:06.853Z,263.90
2022-12-05T17:50:07.154Z,254.70
2022-12-05T18:05:07.330Z,321.90
2022-12-05T18:20:07.536Z,258.20
2022-12-05T18:35:12.743Z,273.20
2022-12-05T18:50:14.255Z,250.10
2022-12-05T19:05:14.408Z,258.80
2022-12-05T19:20:15.845Z,202.50
2022-12-05T19:35:16.051Z,187.10
2022-12-05T19:50:16.184Z,214.20
2022-12-05T20:05:16.368Z,209.50
2022-12-05T20:20:16.565Z,191.20
2022-12-05T20:35:22.555Z,156.50
2022-12-05T20:50:21.909Z,96.10
2022-12-05T21:05:22.107Z,81.00
2022-12-05T21:20:22.367Z,107.90
2022-12-05T21:35:22.567Z,138.20
2022-12-05T21:50:22.702Z,137.80
2022-12-05T22:05:22.945Z,140.20
2022-12-05T22:20:23.115Z,116.30
2022-12-05T22:35:23.325Z,102.10
2022-12-05T22:50:23.532Z,48.20
2022-12-05T23:05:23.834Z,35.80
2022-12-05T23:20:25.268Z,39.30
2022-12-05T23:35:25.485Z,31.30
2022-12-05T23:50:25.740Z,43.00
